Time;durP1;ratioP1;P1;durP2;ratioP2;P2;SDS_P1;SDS_P2;PMS_P1;PMS_P2;Temp;Humidity;BMP_temperature;BMP_pressure;BME280_temperature;BME280_humidity;BME280_pressure;Samples;Min_cycle;Max_cycle;Signal;HPM_P1;HPM_P2
2024/02/01 08:40:16;;;;;;;27.38;13.35;;;;;;;2.89;82.93;98063.06;5068869;27;20390;-60
2024/02/01 08:42:45;;;;;;;27.85;13.88;;;;;;;3.04;83.20;98061.88;5069042;28;20486;-60
2024/02/01 08:45:15;;;;;;;33.05;13.43;;;;;;;3.10;82.85;98056.53;5066907;28;20040;-61
2024/02/01 08:47:41;;;;;;;31.58;14.25;;;;;;;3.16;82.51;98053.03;5048957;28;20041;-58
2024/02/01 08:50:09;;;;;;;27.95;12.98;;;;;;;3.26;83.14;98054.31;5048950;28;20037;-58
2024/02/01 08:52:48;;;;;;;28.83;13.43;;;;;;;3.32;82.11;98056.06;5048834;28;20080;-59
2024/02/01 08:55:17;;;;;;;29.65;14.43;;;;;;;3.24;82.36;98043.28;5048113;28;20048;-60
2024/02/01 08:57:44;;;;;;;29.90;14.52;;;;;;;3.35;82.05;98043.34;5048370;28;20052;-58
2024/02/01 09:00:32;;;;;;;33.63;15.13;;;;;;;3.47;82.07;98035.50;5046477;28;20407;-59
2024/02/01 09:03:19;;;;;;;30.90;14.63;;;;;;;3.44;81.98;98032.50;5046866;28;20041;-60
2024/02/01 09:05:49;;;;;;;28.73;14.02;;;;;;;3.35;81.83;98040.72;5054731;28;20040;-59
2024/02/01 09:08:19;;;;;;;31.48;14.50;;;;;;;3.42;82.04;98023.06;5049599;28;20328;-60
2024/02/01 09:10:57;;;;;;;34.35;15.68;;;;;;;3.51;81.53;98020.91;5061146;28;20521;-60
2024/02/01 09:13:24;;;;;;;33.17;14.52;;;;;;;3.37;81.34;98009.03;5048257;28;20099;-61
2024/02/01 09:15:53;;;;;;;32.13;15.13;;;;;;;3.19;82.41;98017.75;5046367;28;20048;-60
2024/02/01 09:18:19;;;;;;;31.10;13.90;;;;;;;3.24;83.37;98001.41;5047963;28;20053;-60
2024/02/01 09:20:46;;;;;;;32.28;13.88;;;;;;;3.36;82.77;97999.59;5046640;28;20465;-59
2024/02/01 09:23:11;;;;;;;30.20;14.85;;;;;;;3.46;81.47;97994.59;5046526;28;20128;-59
2024/02/01 09:25:38;;;;;;;29.80;13.95;;;;;;;3.46;81.08;97986.72;5047461;28;20236;-59
2024/02/01 09:28:11;;;;;;;27.90;13.45;;;;;;;3.55;81.03;97980.13;5047857;28;20120;-59
2024/02/01 09:30:48;;;;;;;26.40;12.57;;;;;;;3.63;80.16;97982.44;5026594;28;20041;-59
2024/02/01 09:33:14;;;;;;;30.02;13.80;;;;;;;3.58;80.04;97979.69;5027879;28;20037;-62
2024/02/01 09:35:40;;;;;;;29.75;12.60;;;;;;;3.48;80.67;97973.41;5033284;28;20048;-60
2024/02/01 09:38:05;;;;;;;27.30;13.70;;;;;;;3.46;80.94;97970.22;5047295;28;20049;-63
2024/02/01 09:40:31;;;;;;;29.30;13.68;;;;;;;3.57;80.58;97972.06;5033983;28;20048;-61
2024/02/01 09:42:56;;;;;;;32.30;13.95;;;;;;;3.60;80.24;97964.53;5067541;28;20041;-62
2024/02/01 09:45:29;;;;;;;27.33;13.48;;;;;;;3.62;79.52;97959.09;5065815;28;20373;-62
2024/02/01 09:47:56;;;;;;;29.17;13.38;;;;;;;3.74;79.92;97959.09;5066049;28;20043;-62
2024/02/01 09:50:22;;;;;;;31.73;15.10;;;;;;;3.90;79.04;97953.16;5058628;28;20083;-61
2024/02/01 09:52:50;;;;;;;29.60;14.68;;;;;;;3.90;79.05;97947.09;5053908;28;20091;-59
2024/02/01 09:55:17;;;;;;;28.90;14.05;;;;;;;3.99;78.86;97945.72;5049776;28;20222;-59
2024/02/01 09:57:48;;;;;;;24.70;12.80;;;;;;;3.90;78.18;97936.63;5033934;28;20052;-61
2024/02/01 10:00:23;;;;;;;;;;;;;;;3.85;78.88;97932.88;5033162;28;20064;-61
2024/02/01 10:02:53;;;;;;;33.83;13.68;;;;;;;3.89;79.18;97922.72;5034059;28;19921;-60
2024/02/01 10:05:20;;;;;;;31.40;14.20;;;;;;;3.84;78.24;97920.78;5033844;28;20457;-61
2024/02/01 10:07:46;;;;;;;33.92;14.50;;;;;;;3.73;79.00;97916.34;5033631;28;20048;-60
2024/02/01 10:10:15;;;;;;;29.70;13.90;;;;;;;3.67;79.05;97913.84;5032101;28;20083;-60
2024/02/01 10:12:41;;;;;;;29.60;14.55;;;;;;;3.70;79.63;97900.28;5033463;28;20067;-58
2024/02/01 10:15:11;;;;;;;32.13;14.93;;;;;;;3.73;78.89;97900.59;5034679;28;20131;-61
2024/02/01 10:17:47;;;;;;;32.85;14.40;;;;;;;3.75;79.13;97888.09;5007677;28;20033;-60
2024/02/01 10:20:34;;;;;;;28.13;13.77;;;;;;;3.82;79.36;97888.78;4997182;28;20403;-62
2024/02/01 10:23:04;;;;;;;35.22;14.45;;;;;;;3.86;78.91;97879.41;5053470;28;20065;-59
2024/02/01 10:25:36;;;;;;;29.58;14.27;;;;;;;3.84;78.59;97878.84;5034522;28;20539;-59
2024/02/01 10:28:09;;;;;;;28.98;14.30;;;;;;;3.81;78.24;97868.03;5033229;28;20495;-60
2024/02/01 10:30:39;;;;;;;35.97;16.38;;;;;;;3.86;78.67;97858.44;5013302;28;20081;-61
2024/02/01 10:33:06;;;;;;;30.85;15.05;;;;;;;3.82;78.19;97848.63;5032078;28;20438;-59
2024/02/01 10:35:32;;;;;;;30.92;14.88;;;;;;;3.91;77.93;97844.63;5049393;28;20052;-59
2024/02/01 10:38:11;;;;;;;27.67;14.73;;;;;;;3.80;77.89;97848.88;5051693;28;20053;-60
2024/02/01 10:40:44;;;;;;;29.10;14.07;;;;;;;3.85;78.13;97846.38;5035070;28;20045;-58
2024/02/01 10:43:17;;;;;;;30.02;14.45;;;;;;;3.91;77.42;97849.88;5033384;28;20041;-61
2024/02/01 10:45:43;;;;;;;27.33;14.88;;;;;;;3.86;77.71;97855.81;5030809;28;20550;-59
2024/02/01 10:48:10;;;;;;;29.42;14.23;;;;;;;3.86;78.13;97847.16;4995455;28;20057;-59
2024/02/01 10:50:39;;;;;;;31.70;14.02;;;;;;;3.90;78.31;97848.28;5029431;28;20053;-58
2024/02/01 10:53:11;;;;;;;29.00;13.65;;;;;;;3.85;77.81;97832.44;5032868;28;20040;-59
2024/02/01 10:55:40;;;;;;;30.58;14.45;;;;;;;3.75;78.05;97837.50;5049583;28;20040;-59
2024/02/01 10:58:12;;;;;;;29.73;13.60;;;;;;;3.66;78.96;97831.03;5052521;28;20080;-59
2024/02/01 11:00:42;;;;;;;29.42;14.38;;;;;;;3.69;78.74;97835.81;5051085;28;20422;-59
2024/02/01 11:03:08;;;;;;;28.65;13.40;;;;;;;3.60;78.80;97830.13;5050437;28;20457;-59
2024/02/01 11:05:35;;;;;;;28.45;13.35;;;;;;;3.61;79.40;97827.25;5034337;28;20098;-61
2024/02/01 11:08:02;;;;;;;35.63;15.10;;;;;;;3.67;78.99;97820.28;5014505;28;20057;-58
2024/02/01 11:10:28;;;;;;;27.98;12.27;;;;;;;3.74;78.62;97809.72;5032294;28;20049;-58
2024/02/01 11:12:55;;;;;;;30.40;14.38;;;;;;;3.79;78.04;97807.94;5031319;28;20041;-59
2024/02/01 11:15:29;;;;;;;30.08;13.75;;;;;;;3.75;78.33;97798.19;5032354;28;20045;-60
2024/02/01 11:17:59;;;;;;;29.55;14.80;;;;;;;3.66;78.23;97795.13;5032441;28;20049;-58
2024/02/01 11:20:25;;;;;;;28.13;12.68;;;;;;;3.62;78.74;97786.16;5030895;28;20588;-59
2024/02/01 11:22:58;;;;;;;29.55;13.20;;;;;;;3.68;78.42;97787.84;5032360;28;20042;-61
2024/02/01 11:25:33;;;;;;;26.13;13.35;;;;;;;3.63;78.37;97785.09;5048435;28;20061;-61
2024/02/01 11:28:00;;;;;;;27.65;13.52;;;;;;;3.62;78.55;97779.06;5052016;28;20045;-62
2024/02/01 11:30:31;;;;;;;25.33;12.82;;;;;;;3.64;78.13;97782.25;5014663;28;20046;-61
2024/02/01 11:32:57;;;;;;;28.42;13.10;;;;;;;3.59;78.79;97784.00;5012673;28;20046;-60
2024/02/01 11:35:24;;;;;;;30.25;12.75;;;;;;;3.64;78.61;97773.59;5044769;28;20044;-60
2024/02/01 11:38:06;;;;;;;26.10;12.35;;;;;;;3.56;78.68;97771.31;5051492;28;20233;-60
2024/02/01 11:40:32;;;;;;;28.20;13.50;;;;;;;3.51;78.87;97758.94;5034391;28;20506;-63
2024/02/01 11:42:59;;;;;;;24.90;12.98;;;;;;;3.61;78.73;97768.81;5014215;28;20481;-60
2024/02/01 11:45:25;;;;;;;32.40;13.50;;;;;;;3.65;78.95;97769.97;5048008;28;20076;-58
2024/02/01 11:47:53;;;;;;;26.35;12.52;;;;;;;3.57;78.73;97765.06;5050544;28;20132;-60
2024/02/01 11:50:23;;;;;;;24.75;12.07;;;;;;;3.53;78.63;97766.53;5036078;28;20060;-59
2024/02/01 11:53:05;;;;;;;;;;;;;;;3.60;78.70;97768.03;5030901;28;20538;-60
2024/02/01 11:55:34;;;;;;;23.42;11.60;;;;;;;3.52;78.61;97767.59;5031739;28;19927;-60
2024/02/01 11:58:00;;;;;;;27.02;12.88;;;;;;;3.49;78.59;97755.75;5030147;28;20042;-59
2024/02/01 12:00:27;;;;;;;27.05;12.80;;;;;;;3.46;78.61;97760.66;5030068;28;20045;-61
2024/02/01 12:02:52;;;;;;;27.50;11.88;;;;;;;3.54;78.75;97761.09;5031651;28;20144;-60
2024/02/01 12:05:19;;;;;;;28.33;12.02;;;;;;;3.50;78.76;97759.16;5030041;28;20045;-61
2024/02/01 12:07:46;;;;;;;24.17;11.85;;;;;;;3.55;78.74;97761.88;5031445;28;20045;-60
2024/02/01 12:10:12;;;;;;;23.95;11.27;;;;;;;3.53;78.62;97759.50;5031217;28;20095;-64
2024/02/01 12:12:44;;;;;;;25.92;12.25;;;;;;;3.42;78.53;97750.63;5031212;28;20041;-60
2024/02/01 12:15:12;;;;;;;28.02;12.20;;;;;;;3.32;78.72;97752.25;5030051;28;20052;-60
2024/02/01 12:17:48;;;;;;;22.88;11.40;;;;;;;3.22;78.44;97747.59;5031489;28;20167;-59
2024/02/01 12:20:18;;;;;;;25.00;12.27;;;;;;;3.24;78.79;97742.94;5014735;28;20455;-60
2024/02/01 12:22:46;;;;;;;20.70;11.38;;;;;;;3.34;78.45;97750.19;5051240;28;20072;-61
2024/02/01 12:25:12;;;;;;;21.70;11.05;;;;;;;3.41;78.29;97748.22;5032691;28;20568;-59
2024/02/01 12:27:48;;;;;;;22.75;10.82;;;;;;;3.45;78.04;97754.63;5031334;28;20049;-59
2024/02/01 12:30:15;;;;;;;21.38;10.60;;;;;;;3.30;78.36;97743.84;5048385;28;20155;-58
2024/02/01 12:32:44;;;;;;;21.55;10.73;;;;;;;3.24;78.82;97736.91;5051111;28;20045;-59
2024/02/01 12:35:19;;;;;;;20.08;10.73;;;;;;;3.19;78.48;97737.59;5031783;28;20029;-58
2024/02/01 12:37:47;;;;;;;21.85;10.15;;;;;;;3.19;78.36;97729.72;5031005;28;20041;-60
2024/02/01 12:40:14;;;;;;;21.90;10.75;;;;;;;3.12;78.41;97729.06;5029708;28;20505;-62
2024/02/01 12:42:41;;;;;;;20.38;9.73;;;;;;;3.11;78.29;97728.25;5031007;28;20132;-60
2024/02/01 12:45:20;;;;;;;24.80;11.57;;;;;;;3.09;78.49;97721.66;5030830;28;20048;-58
2024/02/01 12:47:51;;;;;;;20.80;9.77;;;;;;;3.09;78.50;97713.78;5029818;28;20057;-59
2024/02/01 12:50:17;;;;;;;22.70;10.35;;;;;;;3.04;78.46;97704.03;5009797;28;20057;-59
2024/02/01 12:52:46;;;;;;;20.65;9.57;;;;;;;3.02;78.00;97732.25;5010250;28;20480;-58
2024/02/01 12:55:13;;;;;;;20.80;9.27;;;;;;;2.92;78.12;97721.56;5029730;28;20091;-59
2024/02/01 12:57:48;;;;;;;25.13;10.32;;;;;;;2.81;78.80;97719.75;5050786;28;20033;-57
2024/02/01 13:00:15;;;;;;;20.88;9.32;;;;;;;2.83;79.02;97713.25;5050663;28;20045;-60
2024/02/01 13:02:41;;;;;;;18.10;9.18;;;;;;;2.92;78.89;97708.47;5051031;28;20048;-59
2024/02/01 13:05:10;;;;;;;20.20;9.88;;;;;;;2.86;78.73;97712.00;5033045;28;20033;-61
2024/02/01 13:07:36;;;;;;;19.45;9.68;;;;;;;2.88;79.39;97716.00;5030867;28;20048;-61
2024/02/01 13:10:08;;;;;;;19.80;9.93;;;;;;;2.86;79.55;97714.63;5046268;28;20040;-60
2024/02/01 13:12:35;;;;;;;22.25;10.60;;;;;;;2.88;79.39;97720.41;5051038;28;20041;-58
2024/02/01 13:15:01;;;;;;;21.15;10.30;;;;;;;2.86;79.54;97710.19;5033771;28;20143;-60
2024/02/01 13:17:30;;;;;;;22.00;11.05;;;;;;;2.85;79.37;97698.09;4993628;28;20084;-60
2024/02/01 13:19:56;;;;;;;20.65;9.82;;;;;;;2.86;78.95;97696.31;5008822;28;20049;-59
2024/02/01 13:22:25;;;;;;;18.52;8.90;;;;;;;2.78;79.10;97709.72;5030828;28;20049;-59
2024/02/01 13:24:52;;;;;;;17.88;10.07;;;;;;;2.78;79.38;97709.72;5029812;28;20092;-58
2024/02/01 13:27:18;;;;;;;21.98;10.05;;;;;;;2.81;79.14;97720.53;5033426;28;20128;-56
2024/02/01 13:29:44;;;;;;;19.77;8.98;;;;;;;2.79;79.02;97712.09;5031048;28;20467;-59
2024/02/01 13:32:12;;;;;;;24.15;10.88;;;;;;;2.79;79.32;97709.50;5036574;28;20041;-58
2024/02/01 13:34:41;;;;;;;22.75;10.65;;;;;;;2.74;79.49;97704.16;5039523;28;20042;-58
2024/02/01 13:37:07;;;;;;;22.13;10.38;;;;;;;2.69;79.65;97707.44;5034333;28;20052;-62
2024/02/01 13:39:34;;;;;;;24.45;9.68;;;;;;;2.72;79.47;97693.13;5045402;28;20057;-58
2024/02/01 13:42:03;;;;;;;18.60;8.82;;;;;;;2.72;79.31;97700.97;5054498;28;20094;-61
2024/02/01 13:44:30;;;;;;;16.30;9.40;;;;;;;2.77;79.02;97698.47;5042054;28;20053;-57
2024/02/01 13:46:56;;;;;;;19.42;9.15;;;;;;;2.76;79.16;97696.88;5034071;28;20529;-58
2024/02/01 13:49:22;;;;;;;20.23;9.68;;;;;;;2.68;79.99;97679.72;5033687;28;20084;-58
2024/02/01 13:51:48;;;;;;;22.30;9.95;;;;;;;2.66;81.52;97680.97;4983819;28;20065;-61
2024/02/01 13:54:14;;;;;;;19.52;10.20;;;;;;;2.70;80.93;97677.63;5032748;28;20164;-60
2024/02/01 13:56:40;;;;;;;19.95;10.38;;;;;;;2.81;81.29;97670.81;5034229;28;20410;-60
2024/02/01 13:59:06;;;;;;;21.20;10.18;;;;;;;2.75;80.60;97673.56;5033966;28;20076;-57
2024/02/01 14:01:31;;;;;;;22.05;9.90;;;;;;;2.76;80.88;97675.13;5033873;28;20059;-57
2024/02/01 14:04:00;;;;;;;19.77;10.07;;;;;;;2.84;80.25;97672.97;5033517;28;20090;-60
2024/02/01 14:06:26;;;;;;;18.95;10.30;;;;;;;2.86;80.47;97670.13;5033881;28;20048;-60
2024/02/01 14:08:51;;;;;;;21.00;9.95;;;;;;;2.88;80.20;97666.28;5033617;28;20042;-60
2024/02/01 14:11:17;;;;;;;20.27;10.25;;;;;;;2.89;80.34;97662.63;5032450;28;20045;-61
2024/02/01 14:13:47;;;;;;;22.05;9.80;;;;;;;2.96;80.22;97657.25;5032270;28;20045;-60
2024/02/01 14:16:12;;;;;;;23.35;10.65;;;;;;;2.95;79.87;97655.69;5033816;28;20042;-60
2024/02/01 14:18:38;;;;;;;20.98;9.88;;;;;;;2.94;79.91;97657.50;5032031;28;20049;-60
2024/02/01 14:21:06;;;;;;;20.15;10.30;;;;;;;2.85;80.38;97658.06;5033749;28;20075;-63
2024/02/01 14:23:32;;;;;;;18.85;9.65;;;;;;;2.96;79.95;97652.03;5036710;28;20649;-61
2024/02/01 14:25:58;;;;;;;17.67;9.20;;;;;;;2.97;79.92;97656.22;5053773;28;20037;-62
2024/02/01 14:28:23;;;;;;;22.55;9.77;;;;;;;2.93;80.39;97648.03;5053258;28;20553;-58
2024/02/01 14:30:49;;;;;;;19.50;10.27;;;;;;;2.92;80.21;97643.84;5053116;28;20090;-60
2024/02/01 14:33:15;;;;;;;18.80;9.15;;;;;;;3.00;80.33;97644.50;5051049;28;20049;-59
2024/02/01 14:35:40;;;;;;;18.92;9.88;;;;;;;3.00;80.46;97647.13;5033190;28;20041;-59
2024/02/01 14:38:06;;;;;;;18.80;8.88;;;;;;;2.99;80.16;97648.16;5031376;28;20064;-60
2024/02/01 14:40:32;;;;;;;21.20;9.85;;;;;;;3.03;80.61;97647.47;5032127;28;20043;-61
2024/02/01 14:43:01;;;;;;;19.35;9.73;;;;;;;3.00;80.34;97641.88;5033318;28;20421;-59
2024/02/01 14:45:27;;;;;;;21.60;9.93;;;;;;;3.01;80.30;97640.88;5033369;28;20522;-59
2024/02/01 14:47:52;;;;;;;20.98;10.35;;;;;;;2.93;80.34;97637.56;5032983;28;20054;-60
2024/02/01 14:50:19;;;;;;;18.38;9.27;;;;;;;2.96;80.02;97633.69;5031264;28;20480;-60
2024/02/01 14:52:45;;;;;;;17.65;9.82;;;;;;;2.91;79.61;97623.94;5032838;28;20099;-59
2024/02/01 14:55:12;;;;;;;20.98;10.40;;;;;;;2.80;nan;97622.13;5031505;28;20506;-60
2024/02/01 14:57:39;;;;;;;21.67;10.45;;;;;;;2.73;79.92;97611.78;5024285;28;20065;-60
2024/02/01 15:00:08;;;;;;;21.50;11.38;;;;;;;2.64;79.84;97605.31;5028397;28;20049;-61
2024/02/01 15:02:34;;;;;;;21.38;11.50;;;;;;;2.71;80.27;97602.59;5029647;28;20108;-61
2024/02/01 15:05:00;;;;;;;21.50;10.75;;;;;;;2.68;79.72;97603.03;5032242;28;20486;-59
2024/02/01 15:07:26;;;;;;;20.00;10.68;;;;;;;2.74;80.11;97602.13;5014972;28;20037;-62
2024/02/01 15:09:53;;;;;;;24.13;10.40;;;;;;;2.60;80.21;97598.16;5031334;28;20095;-60
2024/02/01 15:12:21;;;;;;;23.27;10.23;;;;;;;2.54;80.63;97594.63;5015297;28;20052;-59
2024/02/01 15:14:48;;;;;;;22.63;11.27;;;;;;;2.54;80.81;97583.38;5025552;28;20180;-59
2024/02/01 15:17:15;;;;;;;22.65;10.80;;;;;;;2.62;80.22;97589.06;5024315;28;20049;-61
2024/02/01 15:19:44;;;;;;;21.90;10.82;;;;;;;2.64;80.45;97587.00;5029238;28;20432;-60
2024/02/01 15:22:11;;;;;;;20.63;10.95;;;;;;;2.61;80.41;97587.44;5029641;28;20044;-60
2024/02/01 15:24:37;;;;;;;21.77;10.63;;;;;;;2.63;80.59;97574.16;5030065;28;20060;-59
2024/02/01 15:27:04;;;;;;;21.58;10.77;;;;;;;2.64;79.95;97575.75;5027676;28;20052;-61
2024/02/01 15:29:30;;;;;;;21.88;10.27;;;;;;;2.65;79.80;97577.34;5032289;28;20179;-60
2024/02/01 15:31:56;;;;;;;21.33;11.18;;;;;;;2.61;80.02;97568.34;5031162;28;20049;-59
2024/02/01 15:34:22;;;;;;;20.80;10.93;;;;;;;2.62;79.31;97575.97;5023068;28;20050;-61
2024/02/01 15:36:48;;;;;;;21.02;10.32;;;;;;;2.66;79.12;97573.69;5014260;28;20430;-62
2024/02/01 15:39:14;;;;;;;23.35;10.35;;;;;;;2.70;78.75;97577.44;5040136;28;20056;-59
2024/02/01 15:41:40;;;;;;;17.52;9.85;;;;;;;2.61;78.75;97566.53;5051964;28;20095;-62
2024/02/01 15:44:06;;;;;;;21.25;9.98;;;;;;;2.59;79.03;97567.78;5050290;28;20048;-61
2024/02/01 15:46:36;;;;;;;22.67;10.80;;;;;;;2.53;78.57;97564.28;5019322;28;20032;-59
2024/02/01 15:49:02;;;;;;;20.40;9.60;;;;;;;2.56;78.05;97557.78;5009958;28;20492;-59
2024/02/01 15:51:28;;;;;;;21.23;10.75;;;;;;;2.48;78.35;97554.50;5014019;28;20079;-62
2024/02/01 15:53:54;;;;;;;18.17;10.20;;;;;;;2.54;78.38;97554.63;5020519;28;20411;-61
2024/02/01 15:56:19;;;;;;;18.20;9.35;;;;;;;2.52;77.88;97548.81;5031977;28;20411;-61
2024/02/01 15:58:45;;;;;;;20.17;10.05;;;;;;;2.53;77.53;97556.44;5029781;28;20560;-60
2024/02/01 16:01:11;;;;;;;20.08;9.43;;;;;;;2.52;77.24;97549.59;5030316;28;20068;-61
2024/02/01 16:03:37;;;;;;;16.45;9.30;;;;;;;2.59;77.04;97559.94;5013739;28;20410;-61
2024/02/01 16:06:07;;;;;;;14.20;8.30;;;;;;;2.53;76.07;97558.25;5022704;28;20038;-64
2024/02/01 16:08:53;;;;;;;;;;;;;;;2.58;76.45;97551.28;5025935;28;20045;-58
2024/02/01 16:11:21;;;;;;;15.02;8.38;;;;;;;2.56;75.91;97550.75;5022238;28;19964;-59
2024/02/01 16:13:57;;;;;;;13.15;8.38;;;;;;;2.48;76.53;97535.41;5016014;28;20411;-60
2024/02/01 16:16:31;;;;;;;18.33;8.82;;;;;;;2.47;76.65;97534.63;5012401;28;20034;-58
2024/02/01 16:18:58;;;;;;;17.05;9.43;;;;;;;2.44;76.55;97534.25;5029315;28;20048;-58
2024/02/01 16:21:30;;;;;;;14.30;8.38;;;;;;;2.44;76.67;97532.47;5031258;28;20068;-59
2024/02/01 16:23:58;;;;;;;16.27;8.80;;;;;;;2.46;76.96;97529.59;5032901;28;20106;-59
2024/02/01 16:26:24;;;;;;;15.23;7.93;;;;;;;2.49;76.21;97531.75;5012873;28;20103;-58
2024/02/01 16:28:50;;;;;;;12.95;7.75;;;;;;;2.53;75.48;97530.28;5005696;28;20458;-58
2024/02/01 16:31:22;;;;;;;11.27;7.32;;;;;;;2.51;75.32;97516.63;5010305;28;20586;-60
2024/02/01 16:34:21;;;;;;;12.98;7.70;;;;;;;2.42;75.21;97513.59;5022872;28;20044;-59
2024/02/01 16:36:51;;;;;;;13.52;7.50;;;;;;;2.34;75.50;97519.16;5047857;28;20045;-60
2024/02/01 16:39:32;;;;;;;13.13;8.30;;;;;;;2.42;75.21;97515.41;5018132;28;20057;-60
2024/02/01 16:41:59;;;;;;;;;;;;;;;2.42;75.56;97523.25;4977769;28;20045;-61
2024/02/01 16:44:46;;;;;;;13.68;7.53;;;;;;;2.36;75.14;97513.72;5009851;28;20028;-61
2024/02/01 16:47:14;;;;;;;11.07;6.72;;;;;;;2.34;75.48;97519.16;5020877;28;20418;-59
2024/02/01 16:49:41;;;;;;;13.20;7.28;;;;;;;2.36;75.71;97518.94;5028684;28;20034;-61
2024/02/01 16:52:13;;;;;;;11.50;7.13;;;;;;;2.31;75.38;97513.59;5029984;28;20410;-60
2024/02/01 16:54:39;;;;;;;11.90;7.07;;;;;;;2.33;75.07;97508.94;5030578;28;20121;-61
2024/02/01 16:57:07;;;;;;;9.85;6.70;;;;;;;2.32;75.19;97495.06;5011634;28;20045;-60
2024/02/01 16:59:33;;;;;;;13.07;6.60;;;;;;;2.30;74.92;97504.19;5027349;28;20053;-60
2024/02/01 17:01:59;;;;;;;13.65;6.97;;;;;;;2.33;74.30;97508.94;5034599;28;20068;-60
2024/02/01 17:04:32;;;;;;;12.02;6.35;;;;;;;2.29;74.14;97495.50;5033347;28;20084;-59
2024/02/01 17:06:58;;;;;;;10.25;6.40;;;;;;;2.24;73.92;97503.28;5032678;28;20103;-62
2024/02/01 17:09:25;;;;;;;11.68;6.75;;;;;;;2.26;74.93;97495.97;5033201;28;20057;-62
2024/02/01 17:11:55;;;;;;;10.13;6.30;;;;;;;2.32;74.42;97486.41;5034157;28;20038;-62
2024/02/01 17:14:22;;;;;;;11.40;6.55;;;;;;;2.28;74.42;97493.94;5033165;28;20410;-60
2024/02/01 17:17:01;;;;;;;7.53;5.28;;;;;;;2.25;74.11;97487.34;5033061;28;20514;-62
2024/02/01 17:19:40;;;;;;;12.73;6.05;;;;;;;2.30;73.56;97478.81;5032601;28;20045;-62
2024/02/01 17:22:27;;;;;;;8.55;5.80;;;;;;;2.36;74.05;97485.75;5029395;28;20128;-59
2024/02/01 17:24:54;;;;;;;8.80;5.30;;;;;;;2.36;74.29;97477.91;4999850;28;20077;-59
2024/02/01 17:27:24;;;;;;;8.82;5.53;;;;;;;2.36;74.10;97477.09;5032339;28;20049;-60
2024/02/01 17:29:56;;;;;;;8.52;5.13;;;;;;;2.35;75.10;97486.75;5031757;28;20052;-60
2024/02/01 17:32:25;;;;;;;6.88;4.78;;;;;;;2.34;74.43;97482.56;5030177;28;20048;-59
2024/02/01 17:34:51;;;;;;;6.45;4.68;;;;;;;2.35;74.21;97491.97;5025108;28;20101;-58
2024/02/01 17:37:35;;;;;;;6.88;4.50;;;;;;;2.33;73.74;97488.03;4994796;28;20451;-56
2024/02/01 17:40:13;;;;;;;5.55;4.20;;;;;;;2.35;73.58;97491.97;5014265;28;20064;-59
2024/02/01 17:42:41;;;;;;;4.75;3.50;;;;;;;2.31;73.48;97482.22;5013842;28;20042;-60
2024/02/01 17:45:39;;;;;;;5.15;3.72;;;;;;;2.37;73.50;97500.41;5013773;28;20607;-59
2024/02/01 17:48:11;;;;;;;6.45;4.00;;;;;;;2.38;73.87;97496.78;5013289;28;20058;-58
2024/02/01 17:50:41;;;;;;;6.05;3.72;;;;;;;2.41;73.25;97495.50;5012099;28;20049;-58
2024/02/01 17:53:08;;;;;;;4.97;3.25;;;;;;;2.43;73.19;97488.22;5030343;28;20435;-59
2024/02/01 17:55:46;;;;;;;7.22;3.92;;;;;;;2.42;73.32;97482.19;4990405;28;20069;-59
2024/02/01 17:58:47;;;;;;;4.85;3.50;;;;;;;2.48;73.10;97481.28;5053732;28;20096;-60
2024/02/01 18:01:23;;;;;;;5.80;3.88;;;;;;;2.43;72.81;97473.31;5034769;28;20067;-58
2024/02/01 18:03:57;;;;;;;6.93;3.67;;;;;;;2.45;72.59;97460.81;4981940;28;20050;-61
2024/02/01 18:06:39;;;;;;;5.57;3.85;;;;;;;2.53;72.84;97454.44;5032717;28;20064;-61
2024/02/01 18:09:11;;;;;;;6.18;4.20;;;;;;;2.58;72.47;97456.34;5046050;28;20053;-59
2024/02/01 18:11:49;;;;;;;6.45;4.00;;;;;;;2.48;72.80;97446.50;5040081;28;20041;-60
2024/02/01 18:14:14;;;;;;;6.82;3.60;;;;;;;2.34;72.95;97438.09;5054038;28;20053;-59
2024/02/01 18:16:40;;;;;;;6.03;3.85;;;;;;;2.37;73.88;97449.94;5048544;28;20045;-61
2024/02/01 18:19:07;;;;;;;4.93;3.40;;;;;;;2.39;73.92;97435.59;5019187;28;20064;-61
2024/02/01 18:21:37;;;;;;;5.30;3.65;;;;;;;2.41;73.73;97440.59;5020641;28;20449;-58
2024/02/01 18:24:03;;;;;;;6.45;4.22;;;;;;;2.44;73.74;97432.28;5033860;28;20439;-63
2024/02/01 18:26:30;;;;;;;7.40;3.67;;;;;;;2.51;73.86;97432.94;5031132;28;20083;-61
2024/02/01 18:28:56;;;;;;;6.75;4.03;;;;;;;2.44;74.38;97427.84;5033725;28;20127;-60
2024/02/01 18:31:22;;;;;;;6.40;3.50;;;;;;;2.41;74.87;97415.25;5034878;28;20230;-58
2024/02/01 18:33:49;;;;;;;11.27;4.35;;;;;;;2.40;74.82;97416.25;5018253;28;20101;-59
2024/02/01 18:36:17;;;;;;;5.60;3.95;;;;;;;2.45;74.79;97407.72;5021278;28;20046;-60
2024/02/01 18:38:58;;;;;;;8.75;4.38;;;;;;;2.51;74.22;97406.78;5031684;28;20152;-62
2024/02/01 18:41:25;;;;;;;7.40;4.03;;;;;;;2.47;73.80;97398.63;5015802;28;20072;-61
2024/02/01 18:44:16;;;;;;;6.00;4.03;;;;;;;2.44;74.01;97396.47;4996107;28;20046;-61
2024/02/01 18:46:52;;;;;;;6.18;4.00;;;;;;;2.43;73.78;97407.94;5028072;28;20042;-59
2024/02/01 18:49:19;;;;;;;8.23;3.92;;;;;;;2.43;73.94;97409.78;5031596;28;20107;-59
2024/02/01 18:52:01;;;;;;;6.63;4.13;;;;;;;2.42;73.86;97406.38;5031409;28;20033;-62
2024/02/01 18:54:30;;;;;;;5.57;3.45;;;;;;;2.44;74.15;97411.34;5031705;28;20573;-59
2024/02/01 18:57:00;;;;;;;5.15;3.67;;;;;;;2.40;74.15;97407.63;5032585;28;20073;-57
2024/02/01 18:59:40;;;;;;;5.60;4.07;;;;;;;2.34;74.23;97405.94;5030521;28;20076;-59
2024/02/01 19:02:11;;;;;;;;;;;;;;;2.27;74.50;97403.47;5033301;28;20046;-57
2024/02/01 19:04:37;;;;;;;6.57;4.13;;;;;;;2.29;74.71;97388.31;5012894;28;20391;-59
2024/02/01 19:07:08;;;;;;;7.45;3.67;;;;;;;2.36;74.67;97391.63;5031579;28;20042;-58
2024/02/01 19:09:41;;;;;;;6.03;3.78;;;;;;;2.33;73.95;97389.47;5012233;28;20046;-58
2024/02/01 19:12:11;;;;;;;5.40;4.05;;;;;;;2.20;74.22;97379.25;5016013;28;20037;-57
2024/02/01 19:14:42;;;;;;;7.38;4.10;;;;;;;2.27;74.43;97387.78;5031726;28;20088;-58
2024/02/01 19:17:14;;;;;;;5.32;4.00;;;;;;;2.33;74.71;97380.84;5031636;28;20037;-58
2024/02/01 19:19:41;;;;;;;4.78;3.30;;;;;;;2.28;74.51;97364.00;5032720;28;20403;-59
2024/02/01 19:22:09;;;;;;;4.32;3.25;;;;;;;2.35;74.49;97378.75;5012392;28;20399;-58
2024/02/01 19:24:35;;;;;;;6.38;3.70;;;;;;;2.32;74.38;97377.41;5023968;28;20136;-60
2024/02/01 19:27:00;;;;;;;4.93;3.78;;;;;;;2.30;74.48;97368.22;5032434;28;20120;-62
2024/02/01 19:29:27;;;;;;;7.10;4.00;;;;;;;2.30;74.89;97369.00;5029673;28;20061;-59
2024/02/01 19:31:53;;;;;;;7.72;3.53;;;;;;;2.24;75.21;97370.75;5032652;28;20472;-58
2024/02/01 19:34:33;;;;;;;4.05;3.25;;;;;;;2.24;75.50;97375.97;5032220;28;20128;-60
2024/02/01 19:37:00;;;;;;;7.78;4.10;;;;;;;2.23;75.73;97366.53;5031292;28;20033;-59
2024/02/01 19:39:29;;;;;;;4.57;3.60;;;;;;;2.17;76.18;97374.50;5030574;28;20246;-60
2024/02/01 19:41:56;;;;;;;5.25;3.70;;;;;;;2.19;76.74;97368.03;5031035;28;20121;-59
2024/02/01 19:44:24;;;;;;;6.30;3.50;;;;;;;2.19;76.92;97362.78;5029020;28;20120;-60
2024/02/01 19:46:49;;;;;;;5.57;3.95;;;;;;;2.21;76.88;97357.34;5022810;28;20044;-62
2024/02/01 19:49:15;;;;;;;5.88;3.63;;;;;;;2.15;76.77;97360.91;5050443;28;20041;-58
2024/02/01 19:51:41;;;;;;;5.70;4.05;;;;;;;2.16;77.03;97365.09;5033550;28;20037;-61
2024/02/01 19:54:08;;;;;;;5.88;3.97;;;;;;;2.23;76.67;97368.34;5032294;28;20049;-61
2024/02/01 19:56:33;;;;;;;6.90;4.70;;;;;;;2.25;76.77;97369.69;5030657;28;20069;-60
2024/02/01 19:59:01;;;;;;;8.95;4.63;;;;;;;2.29;76.37;97367.41;5030750;28;20150;-59
2024/02/01 20:01:27;;;;;;;7.03;4.50;;;;;;;2.12;76.74;97356.91;5020210;28;20500;-60
2024/02/01 20:03:53;;;;;;;7.78;4.97;;;;;;;2.11;76.77;97355.31;5012180;28;20068;-60
2024/02/01 20:06:26;;;;;;;8.50;5.00;;;;;;;2.19;77.53;97347.09;4994522;28;20111;-59
2024/02/01 20:08:55;;;;;;;7.07;4.85;;;;;;;2.23;77.08;97358.69;5012468;28;20128;-58
2024/02/01 20:11:25;;;;;;;9.37;5.70;;;;;;;2.29;77.04;97356.94;5030402;28;20525;-60
2024/02/01 20:13:50;;;;;;;8.68;5.57;;;;;;;2.27;76.67;97357.19;5031869;28;20407;-59
2024/02/01 20:16:16;;;;;;;8.65;5.28;;;;;;;2.22;77.06;97354.50;5031564;28;20056;-59
2024/02/01 20:18:42;;;;;;;10.15;5.40;;;;;;;2.19;77.18;97354.16;5011995;28;20554;-58
2024/02/01 20:21:08;;;;;;;10.18;6.13;;;;;;;2.27;77.21;97362.44;5026936;28;20420;-57